sensor_id;sensor_type;location;lat;lon;timestamp;pressure;altitude;pressure_sealevel;temperature;humidity
59987;BME280;46181;51.498;5.392;2023-04-05T00:03:06;102355.8;;;8.02;47.06934
59987;BME280;46181;51.498;5.392;2023-04-05T00:07:36;102368.7;;;7.96;47.06348
59987;BME280;46181;51.498;5.392;2023-04-05T00:12:06;102365.5;;;7.88;47.24512
59987;BME280;46181;51.498;5.392;2023-04-05T00:16:36;102371.9;;;7.8;47.38379
59987;BME280;46181;51.498;5.392;2023-04-05T00:21:06;102370;;;7.75;47.63574
59987;BME280;46181;51.498;5.392;2023-04-05T00:25:36;102362.5;;;7.68;47.70605
59987;BME280;46181;51.498;5.392;2023-04-05T00:30:07;102363.5;;;7.61;47.79883
59987;BME280;46181;51.498;5.392;2023-04-05T00:34:36;102354.1;;;7.54;47.94824
59987;BME280;46181;51.498;5.392;2023-04-05T00:39:06;102355.7;;;7.45;48.11719
59987;BME280;46181;51.498;5.392;2023-04-05T00:43:36;102352;;;7.36;48.15332
59987;BME280;46181;51.498;5.392;2023-04-05T00:48:06;102343.2;;;7.29;48.30176
59987;BME280;46181;51.498;5.392;2023-04-05T00:52:36;102339.6;;;7.22;48.61816
59987;BME280;46181;51.498;5.392;2023-04-05T00:57:07;102336.6;;;7.16;48.83594
59987;BME280;46181;51.498;5.392;2023-04-05T01:01:36;102339.1;;;7.11;48.99805
59987;BME280;46181;51.498;5.392;2023-04-05T01:06:15;102351.1;;;7.01;49.1543
59987;BME280;46181;51.498;5.392;2023-04-05T01:10:41;102351.1;;;6.98;49.26367
59987;BME280;46181;51.498;5.392;2023-04-05T01:15:07;102347.5;;;6.95;49.32813
59987;BME280;46181;51.498;5.392;2023-04-05T01:19:37;102346;;;6.87;49.36328
59987;BME280;46181;51.498;5.392;2023-04-05T01:24:15;102345.8;;;6.77;49.7207
59987;BME280;46181;51.498;5.392;2023-04-05T01:33:12;102332;;;6.55;49.89551
59987;BME280;46181;51.498;5.392;2023-04-05T01:37:38;102328;;;6.57;50.15527
59987;BME280;46181;51.498;5.392;2023-04-05T01:42:10;102325.3;;;6.52;50.23926
59987;BME280;46181;51.498;5.392;2023-04-05T01:46:36;102327.2;;;6.53;50.12891
59987;BME280;46181;51.498;5.392;2023-04-05T01:51:06;102321;;;6.46;50.2207
59987;BME280;46181;51.498;5.392;2023-04-05T01:55:36;102311.1;;;6.4;50.3252
59987;BME280;46181;51.498;5.392;2023-04-05T02:00:07;102312.2;;;6.38;50.45801
59987;BME280;46181;51.498;5.392;2023-04-05T02:04:36;102308.3;;;6.32;50.61719
59987;BME280;46181;51.498;5.392;2023-04-05T02:09:06;102303.4;;;6.29;50.65918
59987;BME280;46181;51.498;5.392;2023-04-05T02:13:36;102305;;;6.25;50.63086
59987;BME280;46181;51.498;5.392;2023-04-05T02:18:06;102304.5;;;6.13;50.77441
59987;BME280;46181;51.498;5.392;2023-04-05T02:22:36;102300.3;;;6.09;50.95898
59987;BME280;46181;51.498;5.392;2023-04-05T02:27:06;102297.1;;;6.03;51.06445
59987;BME280;46181;51.498;5.392;2023-04-05T02:31:36;102293.7;;;6;51.13965
59987;BME280;46181;51.498;5.392;2023-04-05T02:36:07;102296.3;;;6;51.19531
59987;BME280;46181;51.498;5.392;2023-04-05T02:40:36;102296.5;;;5.96;51.21191
59987;BME280;46181;51.498;5.392;2023-04-05T02:45:07;102294.9;;;5.89;51.27051
59987;BME280;46181;51.498;5.392;2023-04-05T02:49:36;102291.1;;;5.84;51.37695
59987;BME280;46181;51.498;5.392;2023-04-05T02:54:06;102294.5;;;5.78;51.4248
59987;BME280;46181;51.498;5.392;2023-04-05T02:58:36;102294;;;5.71;51.50488
59987;BME280;46181;51.498;5.392;2023-04-05T03:03:06;102286.4;;;5.62;51.65137
59987;BME280;46181;51.498;5.392;2023-04-05T03:07:36;102288.5;;;5.61;51.75098
59987;BME280;46181;51.498;5.392;2023-04-05T03:12:06;102280.5;;;5.59;51.77148
59987;BME280;46181;51.498;5.392;2023-04-05T03:16:36;102276.5;;;5.55;51.86523
59987;BME280;46181;51.498;5.392;2023-04-05T03:21:06;102270.3;;;5.51;51.91699
59987;BME280;46181;51.498;5.392;2023-04-05T03:25:36;102264.3;;;5.46;51.98828
59987;BME280;46181;51.498;5.392;2023-04-05T03:30:07;102263.1;;;5.4;52.04883
59987;BME280;46181;51.498;5.392;2023-04-05T03:34:36;102263.3;;;5.36;52.08887
59987;BME280;46181;51.498;5.392;2023-04-05T03:39:06;102264.2;;;5.33;52.24023
59987;BME280;46181;51.498;5.392;2023-04-05T03:43:36;102262.1;;;5.29;52.31348
59987;BME280;46181;51.498;5.392;2023-04-05T03:48:06;102259;;;5.26;52.37598
59987;BME280;46181;51.498;5.392;2023-04-05T03:52:36;102257.4;;;5.22;52.4834
59987;BME280;46181;51.498;5.392;2023-04-05T03:57:06;102257.2;;;5.18;52.5459
59987;BME280;46181;51.498;5.392;2023-04-05T04:01:37;102250;;;5.16;52.57617
59987;BME280;46181;51.498;5.392;2023-04-05T04:06:07;102243.1;;;5.13;52.60645
59987;BME280;46181;51.498;5.392;2023-04-05T04:10:36;102247.5;;;5.11;52.64844
59987;BME280;46181;51.498;5.392;2023-04-05T04:15:07;102241;;;5.08;52.71094
59987;BME280;46181;51.498;5.392;2023-04-05T04:19:36;102244.6;;;5.05;52.74121
59987;BME280;46181;51.498;5.392;2023-04-05T04:24:06;102245.1;;;5.02;52.74902
59987;BME280;46181;51.498;5.392;2023-04-05T04:28:37;102247.1;;;4.97;52.76465
59987;BME280;46181;51.498;5.392;2023-04-05T04:33:06;102244.9;;;4.96;52.76172
59987;BME280;46181;51.498;5.392;2023-04-05T04:37:36;102243.2;;;4.96;52.74023
59987;BME280;46181;51.498;5.392;2023-04-05T04:42:06;102245;;;4.92;52.83691
59987;BME280;46181;51.498;5.392;2023-04-05T04:46:36;102244.4;;;4.9;52.87793
59987;BME280;46181;51.498;5.392;2023-04-05T04:51:06;102240.9;;;4.86;52.92773
59987;BME280;46181;51.498;5.392;2023-04-05T04:55:36;102245.9;;;4.85;52.97266
59987;BME280;46181;51.498;5.392;2023-04-05T05:00:07;102247.5;;;4.83;52.98047
59987;BME280;46181;51.498;5.392;2023-04-05T05:04:36;102244.4;;;4.83;52.99121
59987;BME280;46181;51.498;5.392;2023-04-05T05:09:06;102244.5;;;4.78;53.01953
59987;BME280;46181;51.498;5.392;2023-04-05T05:13:36;102244.9;;;4.78;53.11816
59987;BME280;46181;51.498;5.392;2023-04-05T05:18:06;102245.9;;;4.78;53.18457
59987;BME280;46181;51.498;5.392;2023-04-05T05:22:36;102239.3;;;4.8;53.21094
59987;BME280;46181;51.498;5.392;2023-04-05T05:27:06;102241.4;;;4.83;53.22461
59987;BME280;46181;51.498;5.392;2023-04-05T05:31:36;102234;;;4.85;53.25098
59987;BME280;46181;51.498;5.392;2023-04-05T05:36:07;102237.2;;;4.94;53.37305
59987;BME280;46181;51.498;5.392;2023-04-05T05:40:36;102230.3;;;5.06;53.46582
59987;BME280;46181;51.498;5.392;2023-04-05T05:45:07;102230;;;5.22;53.54004
59987;BME280;46181;51.498;5.392;2023-04-05T05:49:36;102233.3;;;5.4;53.5957
59987;BME280;46181;51.498;5.392;2023-04-05T05:54:06;102231.8;;;5.6;53.49902
59987;BME280;46181;51.498;5.392;2023-04-05T05:58:36;102235;;;5.81;53.41309
59987;BME280;46181;51.498;5.392;2023-04-05T06:03:06;102238.2;;;6.03;53.33008
59987;BME280;46181;51.498;5.392;2023-04-05T06:07:38;102238.4;;;6.25;53.11133
59987;BME280;46181;51.498;5.392;2023-04-05T06:12:06;102238.9;;;6.48;52.87109
59987;BME280;46181;51.498;5.392;2023-04-05T06:16:36;102241.4;;;6.7;52.70801
59987;BME280;46181;51.498;5.392;2023-04-05T06:21:06;102247.6;;;6.93;52.44629
59987;BME280;46181;51.498;5.392;2023-04-05T06:25:36;102249.8;;;7.17;52.11621
59987;BME280;46181;51.498;5.392;2023-04-05T06:30:07;102244.3;;;7.37;51.84961
59987;BME280;46181;51.498;5.392;2023-04-05T06:34:36;102240.6;;;7.6;51.58594
59987;BME280;46181;51.498;5.392;2023-04-05T06:39:06;102246.6;;;7.85;51.25781
59987;BME280;46181;51.498;5.392;2023-04-05T06:43:36;102239.1;;;8.07;50.91309
59987;BME280;46181;51.498;5.392;2023-04-05T06:48:06;102242.8;;;8.28;50.62402
59987;BME280;46181;51.498;5.392;2023-04-05T06:52:36;102247.1;;;8.48;50.0625
59987;BME280;46181;51.498;5.392;2023-04-05T06:57:06;102247.2;;;8.66;49.70117
59987;BME280;46181;51.498;5.392;2023-04-05T07:01:37;102252.5;;;8.87;49.34375
59987;BME280;46181;51.498;5.392;2023-04-05T07:06:07;102255.8;;;9.06;49.30957
59987;BME280;46181;51.498;5.392;2023-04-05T07:10:38;102253.7;;;9.28;48.83887
59987;BME280;46181;51.498;5.392;2023-04-05T07:15:07;102252.5;;;9.49;48.45703
59987;BME280;46181;51.498;5.392;2023-04-05T07:19:36;102253.6;;;9.59;47.71387
59987;BME280;46181;51.498;5.392;2023-04-05T07:24:06;102253.6;;;9.73;47.37988
59987;BME280;46181;51.498;5.392;2023-04-05T07:28:36;102255.7;;;9.93;47.03027
59987;BME280;46181;51.498;5.392;2023-04-05T07:33:06;102245.6;;;10.14;46.60059
59987;BME280;46181;51.498;5.392;2023-04-05T07:37:36;102246.7;;;10.3;46.00879
59987;BME280;46181;51.498;5.392;2023-04-05T07:42:06;102245.6;;;10.48;45.84668
59987;BME280;46181;51.498;5.392;2023-04-05T07:46:37;102248.6;;;10.71;45.35156
59987;BME280;46181;51.498;5.392;2023-04-05T07:51:10;102245.8;;;10.88;44.74707
59987;BME280;46181;51.498;5.392;2023-04-05T07:55:36;102241.9;;;11.11;44.41895
59987;BME280;46181;51.498;5.392;2023-04-05T08:00:07;102244.2;;;11.33;43.8877
59987;BME280;46181;51.498;5.392;2023-04-05T08:04:36;102237.1;;;11.49;43.26953
59987;BME280;46181;51.498;5.392;2023-04-05T08:09:06;102241.3;;;11.68;42.95898
59987;BME280;46181;51.498;5.392;2023-04-05T08:13:36;102235.5;;;11.89;42.66211
59987;BME280;46181;51.498;5.392;2023-04-05T08:18:06;102240;;;12.1;41.87695
59987;BME280;46181;51.498;5.392;2023-04-05T08:22:39;102244;;;12.16;41.23633
59987;BME280;46181;51.498;5.392;2023-04-05T08:27:06;102244.7;;;12.22;40.85547
59987;BME280;46181;51.498;5.392;2023-04-05T08:31:36;102239.6;;;12.37;40.76758
59987;BME280;46181;51.498;5.392;2023-04-05T08:36:11;102235.9;;;12.61;40.2998
59987;BME280;46181;51.498;5.392;2023-04-05T08:40:42;102233.8;;;12.78;39.61133
59987;BME280;46181;51.498;5.392;2023-04-05T08:45:08;102234.1;;;12.75;38.70898
59987;BME280;46181;51.498;5.392;2023-04-05T08:49:36;102234.2;;;12.84;38.19336
59987;BME280;46181;51.498;5.392;2023-04-05T08:54:07;102233.8;;;12.91;37.3125
59987;BME280;46181;51.498;5.392;2023-04-05T08:58:36;102228.8;;;12.98;35.99609
59987;BME280;46181;51.498;5.392;2023-04-05T09:03:07;102232.4;;;12.99;35.46094
59987;BME280;46181;51.498;5.392;2023-04-05T09:07:37;102225.7;;;13.08;34.52344
59987;BME280;46181;51.498;5.392;2023-04-05T09:12:07;102225.2;;;13.15;34.96191
59987;BME280;46181;51.498;5.392;2023-04-05T09:16:37;102229.4;;;13.27;34.24121
59987;BME280;46181;51.498;5.392;2023-04-05T09:21:14;102215;;;13.28;33.29492
59987;BME280;46181;51.498;5.392;2023-04-05T09:25:46;102216.4;;;13.28;33.6377
59987;BME280;46181;51.498;5.392;2023-04-05T09:30:07;102212.9;;;13.38;32.74316
59987;BME280;46181;51.498;5.392;2023-04-05T09:34:37;102209.6;;;13.37;33.07422
59987;BME280;46181;51.498;5.392;2023-04-05T09:39:13;102211.5;;;13.45;32.9541
59987;BME280;46181;51.498;5.392;2023-04-05T09:43:51;102211.2;;;13.58;32.83789
59987;BME280;46181;51.498;5.392;2023-04-05T09:48:06;102205.1;;;13.75;32.65723
59987;BME280;46181;51.498;5.392;2023-04-05T09:52:37;102209.1;;;13.87;32.62012
59987;BME280;46181;51.498;5.392;2023-04-05T09:57:06;102202.9;;;13.89;32.42676
59987;BME280;46181;51.498;5.392;2023-04-05T10:01:41;102193.7;;;14.01;31.87598
59987;BME280;46181;51.498;5.392;2023-04-05T10:06:07;102190.5;;;14.07;31.31934
59987;BME280;46181;51.498;5.392;2023-04-05T10:10:37;102183;;;14.13;31.16406
59987;BME280;46181;51.498;5.392;2023-04-05T10:15:07;102180;;;14.17;30.42285
59987;BME280;46181;51.498;5.392;2023-04-05T10:19:42;102173.2;;;14.32;30.71973
59987;BME280;46181;51.498;5.392;2023-04-05T10:24:12;102173.8;;;14.41;30.56543
59987;BME280;46181;51.498;5.392;2023-04-05T10:28:40;102168.4;;;14.38;30.4375
59987;BME280;46181;51.498;5.392;2023-04-05T10:33:18;102164.4;;;14.39;30.63281
59987;BME280;46181;51.498;5.392;2023-04-05T10:37:44;102162.1;;;14.52;30.1377
59987;BME280;46181;51.498;5.392;2023-04-05T10:42:09;102168;;;14.51;30.06934
59987;BME280;46181;51.498;5.392;2023-04-05T10:46:36;102157.6;;;14.58;29.93652
59987;BME280;46181;51.498;5.392;2023-04-05T10:51:07;102160.7;;;14.67;30.06836
59987;BME280;46181;51.498;5.392;2023-04-05T10:55:37;102154;;;14.76;29.94824
59987;BME280;46181;51.498;5.392;2023-04-05T11:00:08;102150.8;;;14.89;29.58984
59987;BME280;46181;51.498;5.392;2023-04-05T11:04:37;102143;;;14.92;29.75293
59987;BME280;46181;51.498;5.392;2023-04-05T11:09:13;102131.1;;;14.9;29.47656
59987;BME280;46181;51.498;5.392;2023-04-05T11:13:56;102134.8;;;14.85;29.71289
59987;BME280;46181;51.498;5.392;2023-04-05T11:18:20;102128;;;14.95;29.39941
59987;BME280;46181;51.498;5.392;2023-04-05T11:22:37;102131.6;;;15.18;29.85059
59987;BME280;46181;51.498;5.392;2023-04-05T11:27:07;102130.8;;;15.29;29.38867
59987;BME280;46181;51.498;5.392;2023-04-05T11:31:37;102120.2;;;15.25;29.14453
59987;BME280;46181;51.498;5.392;2023-04-05T11:36:12;102119.9;;;15.24;29.23535
59987;BME280;46181;51.498;5.392;2023-04-05T11:40:38;102113.9;;;15.4;29.2002
59987;BME280;46181;51.498;5.392;2023-04-05T11:45:07;102108.4;;;15.35;29.18555
59987;BME280;46181;51.498;5.392;2023-04-05T11:49:36;102099;;;15.58;28.5459
59987;BME280;46181;51.498;5.392;2023-04-05T11:54:06;102091.5;;;15.86;28.41504
59987;BME280;46181;51.498;5.392;2023-04-05T11:58:36;102088;;;15.93;27.99414
59987;BME280;46181;51.498;5.392;2023-04-05T12:03:10;102085.1;;;16.26;27.87695
59987;BME280;46181;51.498;5.392;2023-04-05T12:07:37;102076.3;;;16.44;27.1748
59987;BME280;46181;51.498;5.392;2023-04-05T12:12:08;102076.6;;;16.56;26.74414
59987;BME280;46181;51.498;5.392;2023-04-05T12:16:37;102068.5;;;16.43;26.25293
59987;BME280;46181;51.498;5.392;2023-04-05T12:21:07;102065.8;;;16.4;26.48145
59987;BME280;46181;51.498;5.392;2023-04-05T12:25:36;102056.4;;;16.66;26.23145
59987;BME280;46181;51.498;5.392;2023-04-05T12:30:21;102059.3;;;16.88;25.87598
59987;BME280;46181;51.498;5.392;2023-04-05T12:34:36;102047.5;;;17.02;25.91895
59987;BME280;46181;51.498;5.392;2023-04-05T12:39:08;102045.3;;;16.82;26.41406
59987;BME280;46181;51.498;5.392;2023-04-05T12:43:46;102042.3;;;16.62;26.39063
59987;BME280;46181;51.498;5.392;2023-04-05T12:48:11;102032.6;;;16.63;26.76074
59987;BME280;46181;51.498;5.392;2023-04-05T12:52:38;102039.3;;;16.53;26.44336
59987;BME280;46181;51.498;5.392;2023-04-05T12:57:09;102028.2;;;16.53;26.93848
59987;BME280;46181;51.498;5.392;2023-04-05T13:01:36;102028.2;;;16.57;27.04395
59987;BME280;46181;51.498;5.392;2023-04-05T13:06:06;102022.2;;;16.7;27.07617
59987;BME280;46181;51.498;5.392;2023-04-05T13:10:36;102027;;;16.69;26.44141
59987;BME280;46181;51.498;5.392;2023-04-05T13:15:07;102020.2;;;16.73;26.82422
59987;BME280;46181;51.498;5.392;2023-04-05T13:19:36;102016.2;;;16.85;26.60059
59987;BME280;46181;51.498;5.392;2023-04-05T13:24:06;102004.6;;;16.83;26.71484
59987;BME280;46181;51.498;5.392;2023-04-05T13:28:36;102002.2;;;17.02;26.14941
59987;BME280;46181;51.498;5.392;2023-04-05T13:33:06;101989.1;;;17.19;25.70996
59987;BME280;46181;51.498;5.392;2023-04-05T13:37:36;101986.2;;;17.27;25.50586
59987;BME280;46181;51.498;5.392;2023-04-05T13:42:06;101980.1;;;17.18;25.23535
59987;BME280;46181;51.498;5.392;2023-04-05T13:46:36;101977.7;;;17.07;25.4834
59987;BME280;46181;51.498;5.392;2023-04-05T13:51:06;101983.2;;;17.01;25.15723
59987;BME280;46181;51.498;5.392;2023-04-05T13:55:36;101971.6;;;16.89;25.01172
59987;BME280;46181;51.498;5.392;2023-04-05T14:00:07;101974.3;;;16.93;25.29102
59987;BME280;46181;51.498;5.392;2023-04-05T14:04:36;101965;;;16.96;25.14258
59987;BME280;46181;51.498;5.392;2023-04-05T14:09:06;101959.9;;;17.01;25.05371
59987;BME280;46181;51.498;5.392;2023-04-05T14:13:36;101956.8;;;17.04;25.19336
59987;BME280;46181;51.498;5.392;2023-04-05T14:18:07;101945.1;;;17.16;25.1543
59987;BME280;46181;51.498;5.392;2023-04-05T14:22:36;101944.2;;;17.23;25.22754
59987;BME280;46181;51.498;5.392;2023-04-05T14:27:06;101943.8;;;17.37;25.3623
59987;BME280;46181;51.498;5.392;2023-04-05T14:31:37;101940;;;17.42;25.08789
59987;BME280;46181;51.498;5.392;2023-04-05T14:36:06;101931.9;;;17.42;25.12207
59987;BME280;46181;51.498;5.392;2023-04-05T14:40:36;101925.7;;;17.49;24.94238
59987;BME280;46181;51.498;5.392;2023-04-05T14:45:07;101923.9;;;17.54;24.74805
59987;BME280;46181;51.498;5.392;2023-04-05T14:49:36;101925.3;;;17.58;24.77344
59987;BME280;46181;51.498;5.392;2023-04-05T14:54:07;101914.6;;;17.52;24.77051
59987;BME280;46181;51.498;5.392;2023-04-05T14:58:37;101908.4;;;17.51;25.09277
59987;BME280;46181;51.498;5.392;2023-04-05T15:03:07;101900.9;;;17.49;25.48535
59987;BME280;46181;51.498;5.392;2023-04-05T15:07:37;101898.1;;;17.48;25.36816
59987;BME280;46181;51.498;5.392;2023-04-05T15:12:06;101893.5;;;17.48;25.11426
59987;BME280;46181;51.498;5.392;2023-04-05T15:16:36;101895.3;;;17.47;25.35645
59987;BME280;46181;51.498;5.392;2023-04-05T15:21:07;101881.2;;;17.39;24.99414
59987;BME280;46181;51.498;5.392;2023-04-05T15:25:36;101874.5;;;17.2;25.14453
59987;BME280;46181;51.498;5.392;2023-04-05T15:30:07;101873.2;;;17.14;25.1416
59987;BME280;46181;51.498;5.392;2023-04-05T15:34:37;101871.1;;;17.11;25.83203
59987;BME280;46181;51.498;5.392;2023-04-05T15:39:06;101873.6;;;17.07;25.88672
59987;BME280;46181;51.498;5.392;2023-04-05T15:43:38;101865.1;;;16.97;25.83496
59987;BME280;46181;51.498;5.392;2023-04-05T15:48:07;101866.7;;;16.9;25.93457
59987;BME280;46181;51.498;5.392;2023-04-05T15:52:37;101865;;;16.81;25.94141
59987;BME280;46181;51.498;5.392;2023-04-05T15:57:07;101855.8;;;16.71;25.99219
59987;BME280;46181;51.498;5.392;2023-04-05T16:01:37;101858;;;16.66;26.08203
59987;BME280;46181;51.498;5.392;2023-04-05T16:06:07;101856.9;;;16.59;26.37695
59987;BME280;46181;51.498;5.392;2023-04-05T16:10:36;101854.5;;;16.54;26.38574
59987;BME280;46181;51.498;5.392;2023-04-05T16:15:07;101850.9;;;16.48;26.34766
59987;BME280;46181;51.498;5.392;2023-04-05T16:19:36;101853.8;;;16.41;26.52734
59987;BME280;46181;51.498;5.392;2023-04-05T16:24:07;101852;;;16.38;26.67578
59987;BME280;46181;51.498;5.392;2023-04-05T16:28:37;101846.3;;;16.31;26.55664
59987;BME280;46181;51.498;5.392;2023-04-05T16:33:06;101841.2;;;16.21;26.18164
59987;BME280;46181;51.498;5.392;2023-04-05T16:37:37;101837.6;;;16.14;26.32813
59987;BME280;46181;51.498;5.392;2023-04-05T16:42:07;101840;;;16.08;26.8418
59987;BME280;46181;51.498;5.392;2023-04-05T16:46:37;101840.1;;;16.02;26.61914
59987;BME280;46181;51.498;5.392;2023-04-05T16:51:06;101837.4;;;15.99;26.58301
59987;BME280;46181;51.498;5.392;2023-04-05T16:55:36;101841.4;;;15.94;26.70703
59987;BME280;46181;51.498;5.392;2023-04-05T17:00:07;101838.1;;;15.86;26.80469
59987;BME280;46181;51.498;5.392;2023-04-05T17:04:37;101835.5;;;15.81;26.96387
59987;BME280;46181;51.498;5.392;2023-04-05T17:09:06;101836.1;;;15.74;27.18848
59987;BME280;46181;51.498;5.392;2023-04-05T17:13:37;101838.1;;;15.7;27.1748
59987;BME280;46181;51.498;5.392;2023-04-05T17:18:06;101837.4;;;15.6;27.07715
59987;BME280;46181;51.498;5.392;2023-04-05T17:27:07;101833.4;;;15.46;27.22852
59987;BME280;46181;51.498;5.392;2023-04-05T17:31:36;101832.3;;;15.35;27.31348
59987;BME280;46181;51.498;5.392;2023-04-05T17:36:07;101836.5;;;15.27;27.48145
59987;BME280;46181;51.498;5.392;2023-04-05T17:40:37;101830.8;;;15.18;27.96973
59987;BME280;46181;51.498;5.392;2023-04-05T17:45:07;101834;;;15.08;28.1123
59987;BME280;46181;51.498;5.392;2023-04-05T17:49:36;101832;;;15;28.26758
59987;BME280;46181;51.498;5.392;2023-04-05T17:54:08;101838.9;;;14.87;28.20117
59987;BME280;46181;51.498;5.392;2023-04-05T17:58:36;101839;;;14.79;28.67773
59987;BME280;46181;51.498;5.392;2023-04-05T18:03:07;101834.4;;;14.68;28.5791
59987;BME280;46181;51.498;5.392;2023-04-05T18:07:37;101835.9;;;14.56;28.89258
59987;BME280;46181;51.498;5.392;2023-04-05T18:12:07;101840.8;;;14.44;29.13672
59987;BME280;46181;51.498;5.392;2023-04-05T18:16:36;101842.5;;;14.32;29.56348
59987;BME280;46181;51.498;5.392;2023-04-05T18:21:07;101840.1;;;14.19;29.83008
59987;BME280;46181;51.498;5.392;2023-04-05T18:25:36;101846.8;;;14.07;30.57617
59987;BME280;46181;51.498;5.392;2023-04-05T18:30:07;101839.8;;;13.94;30.49902
59987;BME280;46181;51.498;5.392;2023-04-05T18:34:37;101842.8;;;13.83;30.35352
59987;BME280;46181;51.498;5.392;2023-04-05T18:39:08;101846.6;;;13.71;30.69922
59987;BME280;46181;51.498;5.392;2023-04-05T18:43:37;101846.4;;;13.6;31.03516
59987;BME280;46181;51.498;5.392;2023-04-05T18:48:07;101849.4;;;13.49;31.32422
59987;BME280;46181;51.498;5.392;2023-04-05T18:52:37;101850.4;;;13.37;32.29785
59987;BME280;46181;51.498;5.392;2023-04-05T18:57:07;101849.5;;;13.23;32.37793
59987;BME280;46181;51.498;5.392;2023-04-05T19:01:37;101855.4;;;13.13;32.43945
59987;BME280;46181;51.498;5.392;2023-04-05T19:06:07;101850.3;;;13.02;33.1377
59987;BME280;46181;51.498;5.392;2023-04-05T19:10:38;101858.8;;;12.93;33.14355
59987;BME280;46181;51.498;5.392;2023-04-05T19:15:07;101862;;;12.84;33.38672
59987;BME280;46181;51.498;5.392;2023-04-05T19:19:37;101870.1;;;12.74;33.51563
59987;BME280;46181;51.498;5.392;2023-04-05T19:24:07;101875;;;12.64;33.56543
59987;BME280;46181;51.498;5.392;2023-04-05T19:28:37;101878.7;;;12.55;34.42383
59987;BME280;46181;51.498;5.392;2023-04-05T19:33:07;101871.8;;;12.44;35.15527
59987;BME280;46181;51.498;5.392;2023-04-05T19:37:37;101871.5;;;12.31;35.16797
59987;BME280;46181;51.498;5.392;2023-04-05T19:42:07;101873.3;;;12.22;36.10449
59987;BME280;46181;51.498;5.392;2023-04-05T19:46:37;101864.4;;;12.15;35.91602
59987;BME280;46181;51.498;5.392;2023-04-05T19:51:08;101864.1;;;12.04;35.63477
59987;BME280;46181;51.498;5.392;2023-04-05T19:55:40;101865.4;;;11.96;35.79883
59987;BME280;46181;51.498;5.392;2023-04-05T20:00:09;101862.9;;;11.93;36.19434
59987;BME280;46181;51.498;5.392;2023-04-05T20:04:37;101856.4;;;11.9;36.14648
59987;BME280;46181;51.498;5.392;2023-04-05T20:09:09;101855.9;;;11.81;36.75293
59987;BME280;46181;51.498;5.392;2023-04-05T20:13:41;101856.8;;;11.77;37.13477
59987;BME280;46181;51.498;5.392;2023-04-05T20:18:07;101854;;;11.66;36.81934
59987;BME280;46181;51.498;5.392;2023-04-05T20:22:40;101856.4;;;11.59;37.08594
59987;BME280;46181;51.498;5.392;2023-04-05T20:27:07;101854.7;;;11.52;37.2959
59987;BME280;46181;51.498;5.392;2023-04-05T20:31:37;101856.3;;;11.43;37.63867
59987;BME280;46181;51.498;5.392;2023-04-05T20:36:07;101848.4;;;11.39;37.56738
59987;BME280;46181;51.498;5.392;2023-04-05T20:40:37;101839.1;;;11.32;37.44824
59987;BME280;46181;51.498;5.392;2023-04-05T20:45:07;101840.5;;;11.27;37.95508
59987;BME280;46181;51.498;5.392;2023-04-05T20:49:37;101832.4;;;11.21;38.05176
59987;BME280;46181;51.498;5.392;2023-04-05T20:54:07;101826.5;;;11.13;38.39551
59987;BME280;46181;51.498;5.392;2023-04-05T20:58:38;101827;;;11.04;38.5918
59987;BME280;46181;51.498;5.392;2023-04-05T21:03:07;101821.5;;;10.97;38.58594
59987;BME280;46181;51.498;5.392;2023-04-05T21:07:37;101824.1;;;10.93;39.05859
59987;BME280;46181;51.498;5.392;2023-04-05T21:12:07;101819.7;;;10.86;39.22168
59987;BME280;46181;51.498;5.392;2023-04-05T21:16:37;101817.2;;;10.77;39.33887
59987;BME280;46181;51.498;5.392;2023-04-05T21:21:07;101819.1;;;10.73;39.24414
59987;BME280;46181;51.498;5.392;2023-04-05T21:25:37;101814.8;;;10.68;39.60156
59987;BME280;46181;51.498;5.392;2023-04-05T21:30:07;101807.5;;;10.62;39.7207
59987;BME280;46181;51.498;5.392;2023-04-05T21:34:37;101805.4;;;10.57;39.5459
59987;BME280;46181;51.498;5.392;2023-04-05T21:39:07;101804.4;;;10.54;40.0752
59987;BME280;46181;51.498;5.392;2023-04-05T21:43:37;101808.9;;;10.51;40.20898
59987;BME280;46181;51.498;5.392;2023-04-05T21:48:07;101812.1;;;10.43;40.41699
59987;BME280;46181;51.498;5.392;2023-04-05T21:52:37;101809.1;;;10.36;40.59082
59987;BME280;46181;51.498;5.392;2023-04-05T21:57:07;101808.8;;;10.28;40.67383
59987;BME280;46181;51.498;5.392;2023-04-05T22:01:37;101803.3;;;10.24;40.89551
59987;BME280;46181;51.498;5.392;2023-04-05T22:06:09;101802;;;10.19;40.87988
59987;BME280;46181;51.498;5.392;2023-04-05T22:10:37;101798.6;;;10.19;40.60938
59987;BME280;46181;51.498;5.392;2023-04-05T22:15:07;101796.5;;;10.14;40.72852
59987;BME280;46181;51.498;5.392;2023-04-05T22:19:37;101796;;;10.14;41
59987;BME280;46181;51.498;5.392;2023-04-05T22:24:07;101789.6;;;10.09;40.9834
59987;BME280;46181;51.498;5.392;2023-04-05T22:28:37;101791.3;;;10.01;41.31445
59987;BME280;46181;51.498;5.392;2023-04-05T22:33:07;101785.3;;;9.96;41.73926
59987;BME280;46181;51.498;5.392;2023-04-05T22:37:37;101782.9;;;9.92;41.60059
59987;BME280;46181;51.498;5.392;2023-04-05T22:42:07;101779;;;9.89;41.83398
59987;BME280;46181;51.498;5.392;2023-04-05T22:46:37;101776.6;;;9.88;41.59668
59987;BME280;46181;51.498;5.392;2023-04-05T22:51:07;101778;;;9.84;41.61426
59987;BME280;46181;51.498;5.392;2023-04-05T22:55:37;101774.4;;;9.78;41.79004
59987;BME280;46181;51.498;5.392;2023-04-05T23:00:07;101770;;;9.7;42.1543
59987;BME280;46181;51.498;5.392;2023-04-05T23:04:37;101768.3;;;9.63;42.18262
59987;BME280;46181;51.498;5.392;2023-04-05T23:09:07;101762.2;;;9.54;42.26367
59987;BME280;46181;51.498;5.392;2023-04-05T23:13:37;101758.4;;;9.45;42.54785
59987;BME280;46181;51.498;5.392;2023-04-05T23:18:07;101757.5;;;9.36;42.66309